sensor_id;sensor_type;location;lat;lon;timestamp;pressure;altitude;pressure_sealevel;temperature;humidity
6216;BME280;3141;49.234;9.326;2022-12-18T00:00:41;100884.59;;;-5.58;70.36
6216;BME280;3141;49.234;9.326;2022-12-18T00:01:28;100882.06;;;-5.62;69.59
6216;BME280;3141;49.234;9.326;2022-12-18T00:02:12;100885.44;;;-5.57;69.88
6216;BME280;3141;49.234;9.326;2022-12-18T00:02:55;100889.72;;;-5.56;70.00
6216;BME280;3141;49.234;9.326;2022-12-18T00:03:37;100881.09;;;-5.55;69.89
6216;BME280;3141;49.234;9.326;2022-12-18T00:04:22;100885.41;;;-5.56;69.53
6216;BME280;3141;49.234;9.326;2022-12-18T00:05:05;100884.56;;;-5.56;69.17
6216;BME280;3141;49.234;9.326;2022-12-18T00:05:49;100875.13;;;-5.56;69.38
6216;BME280;3141;49.234;9.326;2022-12-18T00:06:33;100885.41;;;-5.56;69.45
6216;BME280;3141;49.234;9.326;2022-12-18T00:07:15;100877.72;;;-5.57;68.88
6216;BME280;3141;49.234;9.326;2022-12-18T00:07:58;100886.25;;;-5.55;68.81
6216;BME280;3141;49.234;9.326;2022-12-18T00:08:44;100881.94;;;-5.55;69.43
6216;BME280;3141;49.234;9.326;2022-12-18T00:09:26;100882.88;;;-5.57;68.93
6216;BME280;3141;49.234;9.326;2022-12-18T00:10:09;100879.47;;;-5.59;69.26
6216;BME280;3141;49.234;9.326;2022-12-18T00:10:51;100887.13;;;-5.56;68.82
6216;BME280;3141;49.234;9.326;2022-12-18T00:11:33;100886.34;;;-5.60;69.17
6216;BME280;3141;49.234;9.326;2022-12-18T00:12:16;100890.59;;;-5.57;69.22
6216;BME280;3141;49.234;9.326;2022-12-18T00:12:58;100889.78;;;-5.59;69.05
6216;BME280;3141;49.234;9.326;2022-12-18T00:13:41;100888.16;;;-5.65;69.18
6216;BME280;3141;49.234;9.326;2022-12-18T00:14:24;100885.50;;;-5.62;68.83
6216;BME280;3141;49.234;9.326;2022-12-18T00:15:06;100893.19;;;-5.59;68.92
6216;BME280;3141;49.234;9.326;2022-12-18T00:15:49;100886.31;;;-5.58;68.88
6216;BME280;3141;49.234;9.326;2022-12-18T00:16:31;100888.97;;;-5.63;68.93
6216;BME280;3141;49.234;9.326;2022-12-18T00:17:15;100889.91;;;-5.68;68.56
6216;BME280;3141;49.234;9.326;2022-12-18T00:17:57;100883.06;;;-5.68;69.23
6216;BME280;3141;49.234;9.326;2022-12-18T00:18:40;100883.00;;;-5.65;69.20
6216;BME280;3141;49.234;9.326;2022-12-18T00:19:22;100881.31;;;-5.67;68.94
6216;BME280;3141;49.234;9.326;2022-12-18T00:20:05;100881.31;;;-5.67;69.26
6216;BME280;3141;49.234;9.326;2022-12-18T00:20:48;100882.22;;;-5.70;69.03
6216;BME280;3141;49.234;9.326;2022-12-18T00:21:32;100882.09;;;-5.64;69.15
6216;BME280;3141;49.234;9.326;2022-12-18T00:22:14;100882.09;;;-5.64;68.87
6216;BME280;3141;49.234;9.326;2022-12-18T00:22:57;100882.22;;;-5.70;69.45
6216;BME280;3141;49.234;9.326;2022-12-18T00:23:41;100878.00;;;-5.74;69.46
6216;BME280;3141;49.234;9.326;2022-12-18T00:24:23;100882.34;;;-5.77;69.86
6216;BME280;3141;49.234;9.326;2022-12-18T00:25:06;100883.31;;;-5.83;69.46
6216;BME280;3141;49.234;9.326;2022-12-18T00:25:48;100881.63;;;-5.84;70.00
6216;BME280;3141;49.234;9.326;2022-12-18T00:26:32;100885.94;;;-5.86;70.36
6216;BME280;3141;49.234;9.326;2022-12-18T00:27:15;100882.50;;;-5.85;70.31
6216;BME280;3141;49.234;9.326;2022-12-18T00:27:57;100884.91;;;-5.77;70.46
6216;BME280;3141;49.234;9.326;2022-12-18T00:28:40;100884.97;;;-5.80;70.70
6216;BME280;3141;49.234;9.326;2022-12-18T00:29:22;100882.31;;;-5.76;70.05
6216;BME280;3141;49.234;9.326;2022-12-18T00:30:05;100886.56;;;-5.73;70.57
6216;BME280;3141;49.234;9.326;2022-12-18T00:30:48;100890.81;;;-5.71;70.38
6216;BME280;3141;49.234;9.326;2022-12-18T00:31:34;100889.03;;;-5.67;70.22
6216;BME280;3141;49.234;9.326;2022-12-18T00:32:16;100888.22;;;-5.69;69.88
6216;BME280;3141;49.234;9.326;2022-12-18T00:32:58;100896.72;;;-5.66;69.63
6216;BME280;3141;49.234;9.326;2022-12-18T00:33:41;100900.19;;;-5.67;69.55
6216;BME280;3141;49.234;9.326;2022-12-18T00:34:23;100885.53;;;-5.63;69.65
6216;BME280;3141;49.234;9.326;2022-12-18T00:35:07;100894.13;;;-5.63;69.44
6216;BME280;3141;49.234;9.326;2022-12-18T00:35:49;100894.19;;;-5.67;69.93
6216;BME280;3141;49.234;9.326;2022-12-18T00:36:33;100889.88;;;-5.67;69.51
6216;BME280;3141;49.234;9.326;2022-12-18T00:37:16;100899.41;;;-5.72;69.26
6216;BME280;3141;49.234;9.326;2022-12-18T00:37:58;100889.19;;;-5.76;69.71
6216;BME280;3141;49.234;9.326;2022-12-18T00:38:41;100888.34;;;-5.77;69.56
6216;BME280;3141;49.234;9.326;2022-12-18T00:39:23;100890.84;;;-5.74;70.04
6216;BME280;3141;49.234;9.326;2022-12-18T00:40:06;100885.00;;;-5.82;69.85
6216;BME280;3141;49.234;9.326;2022-12-18T00:40:49;100882.38;;;-5.79;70.09
6216;BME280;3141;49.234;9.326;2022-12-18T00:41:32;100882.41;;;-5.82;70.21
6216;BME280;3141;49.234;9.326;2022-12-18T00:42:36;100874.84;;;-5.89;70.61
6216;BME280;3141;49.234;9.326;2022-12-18T00:43:37;100873.97;;;-5.90;70.06
6216;BME280;3141;49.234;9.326;2022-12-18T00:44:20;100870.31;;;-5.77;70.20
6216;BME280;3141;49.234;9.326;2022-12-18T00:45:02;100870.31;;;-5.77;70.00
6216;BME280;3141;49.234;9.326;2022-12-18T00:45:45;100869.56;;;-5.82;69.79
6216;BME280;3141;49.234;9.326;2022-12-18T00:46:27;100879.69;;;-5.74;69.56
6216;BME280;3141;49.234;9.326;2022-12-18T00:47:10;100877.13;;;-5.73;69.50
6216;BME280;3141;49.234;9.326;2022-12-18T00:47:52;100874.53;;;-5.71;69.28
6216;BME280;3141;49.234;9.326;2022-12-18T00:48:35;100879.06;;;-5.84;69.11
6216;BME280;3141;49.234;9.326;2022-12-18T00:49:18;100880.69;;;-5.80;69.64
6216;BME280;3141;49.234;9.326;2022-12-18T00:50:01;100884.94;;;-5.79;69.65
6216;BME280;3141;49.234;9.326;2022-12-18T00:50:44;100882.28;;;-5.73;69.47
6216;BME280;3141;49.234;9.326;2022-12-18T00:51:26;100878.84;;;-5.73;69.43
6216;BME280;3141;49.234;9.326;2022-12-18T00:52:09;100888.28;;;-5.74;69.03
6216;BME280;3141;49.234;9.326;2022-12-18T00:52:52;100884.16;;;-5.82;69.29
6216;BME280;3141;49.234;9.326;2022-12-18T00:53:34;100894.34;;;-5.78;69.09
6216;BME280;3141;49.234;9.326;2022-12-18T00:54:16;100892.78;;;-5.83;69.36
6216;BME280;3141;49.234;9.326;2022-12-18T00:54:59;100898.69;;;-5.81;69.18
6216;BME280;3141;49.234;9.326;2022-12-18T00:55:42;100896.97;;;-5.79;69.52
6216;BME280;3141;49.234;9.326;2022-12-18T00:56:25;100899.47;;;-5.75;69.22
6216;BME280;3141;49.234;9.326;2022-12-18T00:57:07;100895.06;;;-5.68;69.03
6216;BME280;3141;49.234;9.326;2022-12-18T00:57:51;100898.56;;;-5.72;69.37
6216;BME280;3141;49.234;9.326;2022-12-18T00:58:34;100895.22;;;-5.77;68.82
6216;BME280;3141;49.234;9.326;2022-12-18T00:59:17;100897.81;;;-5.79;69.07
6216;BME280;3141;49.234;9.326;2022-12-18T01:00:00;100899.50;;;-5.76;69.27
6216;BME280;3141;49.234;9.326;2022-12-18T01:00:43;100894.41;;;-5.81;69.49
6216;BME280;3141;49.234;9.326;2022-12-18T01:01:25;100891.03;;;-5.83;69.41
6216;BME280;3141;49.234;9.326;2022-12-18T01:02:07;100896.13;;;-5.80;69.24
6216;BME280;3141;49.234;9.326;2022-12-18T01:02:50;100902.13;;;-5.81;69.19
6216;BME280;3141;49.234;9.326;2022-12-18T01:03:32;100894.53;;;-5.85;69.20
6216;BME280;3141;49.234;9.326;2022-12-18T01:04:15;100906.47;;;-5.83;69.23
6216;BME280;3141;49.234;9.326;2022-12-18T01:04:57;100904.72;;;-5.81;69.54
6216;BME280;3141;49.234;9.326;2022-12-18T01:05:40;100900.34;;;-5.77;69.28
6216;BME280;3141;49.234;9.326;2022-12-18T01:06:23;100899.41;;;-5.72;69.72
6216;BME280;3141;49.234;9.326;2022-12-18T01:07:05;100903.69;;;-5.71;69.36
6216;BME280;3141;49.234;9.326;2022-12-18T01:07:48;100902.75;;;-5.67;69.55
6216;BME280;3141;49.234;9.326;2022-12-18T01:08:30;100901.06;;;-5.68;69.02
6216;BME280;3141;49.234;9.326;2022-12-18T01:09:12;100897.66;;;-5.70;69.18
6216;BME280;3141;49.234;9.326;2022-12-18T01:09:55;100896.84;;;-5.72;69.25
6216;BME280;3141;49.234;9.326;2022-12-18T01:10:40;100886.47;;;-5.69;69.56
6216;BME280;3141;49.234;9.326;2022-12-18T01:11:23;100883.84;;;-5.66;69.44
6216;BME280;3141;49.234;9.326;2022-12-18T01:12:06;100887.44;;;-5.73;69.48
6216;BME280;3141;49.234;9.326;2022-12-18T01:12:48;100891.66;;;-5.70;69.84
6216;BME280;3141;49.234;9.326;2022-12-18T01:13:31;100891.50;;;-5.61;69.81
6216;BME280;3141;49.234;9.326;2022-12-18T01:14:13;100884.66;;;-5.61;69.40
6216;BME280;3141;49.234;9.326;2022-12-18T01:14:56;100889.03;;;-5.67;69.32
6216;BME280;3141;49.234;9.326;2022-12-18T01:15:38;100891.56;;;-5.66;69.88
6216;BME280;3141;49.234;9.326;2022-12-18T01:16:21;100893.31;;;-5.66;69.55
6216;BME280;3141;49.234;9.326;2022-12-18T01:17:04;100894.13;;;-5.63;69.38
6216;BME280;3141;49.234;9.326;2022-12-18T01:17:46;100887.38;;;-5.70;69.73
6216;BME280;3141;49.234;9.326;2022-12-18T01:18:29;100893.19;;;-5.60;69.73
6216;BME280;3141;49.234;9.326;2022-12-18T01:19:11;100885.44;;;-5.59;69.27
6216;BME280;3141;49.234;9.326;2022-12-18T01:19:53;100885.56;;;-5.65;69.64
6216;BME280;3141;49.234;9.326;2022-12-18T01:20:37;100893.25;;;-5.63;70.04
6216;BME280;3141;49.234;9.326;2022-12-18T01:21:21;100890.72;;;-5.65;70.16
6216;BME280;3141;49.234;9.326;2022-12-18T01:22:04;100894.06;;;-5.60;69.94
6216;BME280;3141;49.234;9.326;2022-12-18T01:22:46;100891.47;;;-5.58;70.47
6216;BME280;3141;49.234;9.326;2022-12-18T01:23:28;100889.69;;;-5.55;70.07
6216;BME280;3141;49.234;9.326;2022-12-18T01:24:11;100894.94;;;-5.59;70.06
6216;BME280;3141;49.234;9.326;2022-12-18T01:24:54;100893.22;;;-5.62;70.15
6216;BME280;3141;49.234;9.326;2022-12-18T01:25:36;100890.66;;;-5.62;70.06
6216;BME280;3141;49.234;9.326;2022-12-18T01:26:19;100890.50;;;-5.53;69.92
6216;BME280;3141;49.234;9.326;2022-12-18T01:27:01;100901.53;;;-5.45;70.00
6216;BME280;3141;49.234;9.326;2022-12-18T01:27:44;100890.38;;;-5.45;69.85
6216;BME280;3141;49.234;9.326;2022-12-18T01:28:26;100896.34;;;-5.42;70.25
6216;BME280;3141;49.234;9.326;2022-12-18T01:29:08;100892.84;;;-5.39;70.30
6216;BME280;3141;49.234;9.326;2022-12-18T01:29:51;100898.94;;;-5.45;69.90
6216;BME280;3141;49.234;9.326;2022-12-18T01:30:33;100895.53;;;-5.47;70.20
6216;BME280;3141;49.234;9.326;2022-12-18T01:31:27;100895.59;;;-5.50;70.04
6216;BME280;3141;49.234;9.326;2022-12-18T01:32:09;100897.19;;;-5.43;69.74
6216;BME280;3141;49.234;9.326;2022-12-18T01:32:52;100905.75;;;-5.41;69.96
6216;BME280;3141;49.234;9.326;2022-12-18T01:33:34;100904.00;;;-5.39;70.19
6216;BME280;3141;49.234;9.326;2022-12-18T01:34:16;100904.91;;;-5.41;69.92
6216;BME280;3141;49.234;9.326;2022-12-18T01:34:59;100904.84;;;-5.37;69.65
6216;BME280;3141;49.234;9.326;2022-12-18T01:35:42;100910.91;;;-5.41;70.20
6216;BME280;3141;49.234;9.326;2022-12-18T01:36:27;100911.69;;;-5.36;70.47
6216;BME280;3141;49.234;9.326;2022-12-18T01:37:10;100904.91;;;-5.41;70.36
6216;BME280;3141;49.234;9.326;2022-12-18T01:37:55;100909.31;;;-5.48;71.03
6216;BME280;3141;49.234;9.326;2022-12-18T01:38:38;100910.13;;;-5.46;70.63
6216;BME280;3141;49.234;9.326;2022-12-18T01:39:20;100908.41;;;-5.45;70.83
6216;BME280;3141;49.234;9.326;2022-12-18T01:40:03;100904.94;;;-5.43;70.61
6216;BME280;3141;49.234;9.326;2022-12-18T01:40:45;100909.97;;;-5.35;70.69
6216;BME280;3141;49.234;9.326;2022-12-18T01:41:29;100909.03;;;-5.33;70.33
6216;BME280;3141;49.234;9.326;2022-12-18T01:42:32;100907.41;;;-5.37;70.65
6216;BME280;3141;49.234;9.326;2022-12-18T01:43:14;100902.28;;;-5.40;70.98
6216;BME280;3141;49.234;9.326;2022-12-18T01:43:57;100902.13;;;-5.31;70.93
6216;BME280;3141;49.234;9.326;2022-12-18T01:45:51;100901.31;;;-5.33;70.50
6216;BME280;3141;49.234;9.326;2022-12-18T01:46:33;100903.13;;;-5.38;70.37
6216;BME280;3141;49.234;9.326;2022-12-18T01:47:35;100904.94;;;-5.43;70.81
6216;BME280;3141;49.234;9.326;2022-12-18T01:48:18;100903.13;;;-5.38;70.88
6216;BME280;3141;49.234;9.326;2022-12-18T01:49:01;100903.03;;;-5.32;70.63
6216;BME280;3141;49.234;9.326;2022-12-18T01:49:43;100901.28;;;-5.30;70.75
6216;BME280;3141;49.234;9.326;2022-12-18T01:51:19;100902.06;;;-5.28;69.77
6216;BME280;3141;49.234;9.326;2022-12-18T01:52:02;100896.91;;;-5.28;69.72
6216;BME280;3141;49.234;9.326;2022-12-18T01:52:48;100891.78;;;-5.29;70.19
6216;BME280;3141;49.234;9.326;2022-12-18T01:53:30;100899.66;;;-5.35;70.27
6216;BME280;3141;49.234;9.326;2022-12-18T01:54:13;100890.94;;;-5.28;70.04
6216;BME280;3141;49.234;9.326;2022-12-18T01:54:56;100899.50;;;-5.28;70.46
6216;BME280;3141;49.234;9.326;2022-12-18T01:55:43;100899.41;;;-5.22;70.44
6216;BME280;3141;49.234;9.326;2022-12-18T01:56:30;100895.91;;;-5.18;70.36
6216;BME280;3141;49.234;9.326;2022-12-18T01:57:13;100897.75;;;-5.26;70.97
6216;BME280;3141;49.234;9.326;2022-12-18T01:57:58;100890.97;;;-5.30;71.26
6216;BME280;3141;49.234;9.326;2022-12-18T01:58:50;100891.72;;;-5.26;71.40
6216;BME280;3141;49.234;9.326;2022-12-18T01:59:35;100894.94;;;-5.14;71.28
6216;BME280;3141;49.234;9.326;2022-12-18T02:00:20;100900.09;;;-5.14;70.80
6216;BME280;3141;49.234;9.326;2022-12-18T02:01:03;100896.75;;;-5.19;70.75
6216;BME280;3141;49.234;9.326;2022-12-18T02:01:45;100901.91;;;-5.19;71.33
6216;BME280;3141;49.234;9.326;2022-12-18T02:02:46;100895.75;;;-5.12;71.82
6216;BME280;3141;49.234;9.326;2022-12-18T02:03:29;100893.31;;;-5.18;71.40
6216;BME280;3141;49.234;9.326;2022-12-18T02:04:23;100900.03;;;-5.11;71.42
6216;BME280;3141;49.234;9.326;2022-12-18T02:05:06;100901.81;;;-5.13;71.21
6216;BME280;3141;49.234;9.326;2022-12-18T02:06:40;100912.09;;;-5.11;71.75
6216;BME280;3141;49.234;9.326;2022-12-18T02:07:35;100905.25;;;-5.14;71.46
6216;BME280;3141;49.234;9.326;2022-12-18T02:08:30;100905.97;;;-5.06;72.00
6216;BME280;3141;49.234;9.326;2022-12-18T02:09:20;100912.00;;;-5.07;71.66
6216;BME280;3141;49.234;9.326;2022-12-18T02:12:17;100918.06;;;-5.11;70.86
6216;BME280;3141;49.234;9.326;2022-12-18T02:13:20;100924.06;;;-5.09;71.35
6216;BME280;3141;49.234;9.326;2022-12-18T02:15:24;100927.47;;;-5.07;70.72
6216;BME280;3141;49.234;9.326;2022-12-18T02:17:04;100925.06;;;-5.17;71.05
6216;BME280;3141;49.234;9.326;2022-12-18T02:17:59;100921.72;;;-5.22;71.54
6216;BME280;3141;49.234;9.326;2022-12-18T02:18:49;100926.09;;;-5.26;71.37
6216;BME280;3141;49.234;9.326;2022-12-18T02:20:36;100932.75;;;-5.13;71.10
6216;BME280;3141;49.234;9.326;2022-12-18T02:21:32;100932.69;;;-5.10;71.12
6216;BME280;3141;49.234;9.326;2022-12-18T02:24:50;100919.13;;;-5.21;71.20
6216;BME280;3141;49.234;9.326;2022-12-18T02:26:47;100909.66;;;-5.19;71.30
6216;BME280;3141;49.234;9.326;2022-12-18T02:27:32;100905.34;;;-5.18;71.05
6216;BME280;3141;49.234;9.326;2022-12-18T02:28:16;100896.91;;;-5.28;72.10
6216;BME280;3141;49.234;9.326;2022-12-18T02:29:05;100902.88;;;-5.24;72.57
6216;BME280;3141;49.234;9.326;2022-12-18T02:29:53;100898.47;;;-5.18;72.37
6216;BME280;3141;49.234;9.326;2022-12-18T02:30:37;100903.56;;;-5.15;72.06
6216;BME280;3141;49.234;9.326;2022-12-18T02:31:24;100897.75;;;-5.26;72.96
6216;BME280;3141;49.234;9.326;2022-12-18T02:32:15;100905.25;;;-5.14;73.14
6216;BME280;3141;49.234;9.326;2022-12-18T02:33:02;100903.50;;;-5.12;72.76
6216;BME280;3141;49.234;9.326;2022-12-18T02:33:46;100909.50;;;-5.11;73.13
6216;BME280;3141;49.234;9.326;2022-12-18T02:34:32;100905.31;;;-5.17;72.70
6216;BME280;3141;49.234;9.326;2022-12-18T02:35:22;100907.03;;;-5.17;73.04
6216;BME280;3141;49.234;9.326;2022-12-18T02:36:07;100906.97;;;-5.13;72.63
6216;BME280;3141;49.234;9.326;2022-12-18T02:36:52;100912.03;;;-5.08;72.45
6216;BME280;3141;49.234;9.326;2022-12-18T02:37:35;100904.25;;;-5.07;71.94
6216;BME280;3141;49.234;9.326;2022-12-18T02:38:21;100908.63;;;-5.10;72.54
6216;BME280;3141;49.234;9.326;2022-12-18T02:39:05;100918.03;;;-5.08;71.98
6216;BME280;3141;49.234;9.326;2022-12-18T02:39:49;100922.31;;;-5.07;72.48
6216;BME280;3141;49.234;9.326;2022-12-18T02:40:35;100928.09;;;-4.94;72.19
6216;BME280;3141;49.234;9.326;2022-12-18T02:41:19;100929.75;;;-4.92;71.25
6216;BME280;3141;49.234;9.326;2022-12-18T02:42:03;100930.69;;;-4.96;71.37
6216;BME280;3141;49.234;9.326;2022-12-18T02:42:49;100935.03;;;-4.98;71.17
6216;BME280;3141;49.234;9.326;2022-12-18T02:43:32;100930.69;;;-4.96;71.64
6216;BME280;3141;49.234;9.326;2022-12-18T02:44:14;100926.41;;;-4.97;71.58
6216;BME280;3141;49.234;9.326;2022-12-18T02:44:56;100937.53;;;-4.95;71.61
6216;BME280;3141;49.234;9.326;2022-12-18T02:45:47;100935.72;;;-4.90;71.36
6216;BME280;3141;49.234;9.326;2022-12-18T02:46:35;100933.16;;;-4.90;71.28
6216;BME280;3141;49.234;9.326;2022-12-18T02:47:22;100935.97;;;-5.02;71.85
6216;BME280;3141;49.234;9.326;2022-12-18T02:48:05;100936.84;;;-5.03;71.69
6216;BME280;3141;49.234;9.326;2022-12-18T02:48:47;100927.28;;;-4.98;72.30
6216;BME280;3141;49.234;9.326;2022-12-18T02:49:36;100933.38;;;-5.02;71.80
6216;BME280;3141;49.234;9.326;2022-12-18T02:50:47;100927.28;;;-4.98;72.23
6216;BME280;3141;49.234;9.326;2022-12-18T02:51:34;100940.13;;;-4.95;72.33
6216;BME280;3141;49.234;9.326;2022-12-18T02:52:35;100925.69;;;-5.03;72.52
6216;BME280;3141;49.234;9.326;2022-12-18T02:53:50;100924.75;;;-4.99;72.03
6216;BME280;3141;49.234;9.326;2022-12-18T02:56:35;100923.78;;;-4.95;71.66
6216;BME280;3141;49.234;9.326;2022-12-18T02:58:47;100923.13;;;-5.05;71.94
6216;BME280;3141;49.234;9.326;2022-12-18T02:59:41;100926.63;;;-5.09;73.24
6216;BME280;3141;49.234;9.326;2022-12-18T03:00:36;100922.31;;;-5.07;72.88
6216;BME280;3141;49.234;9.326;2022-12-18T03:02:36;100922.13;;;-4.98;73.07
6216;BME280;3141;49.234;9.326;2022-12-18T03:03:26;100912.78;;;-5.03;73.10
6216;BME280;3141;49.234;9.326;2022-12-18T03:05:16;100917.91;;;-5.02;72.89
6216;BME280;3141;49.234;9.326;2022-12-18T03:06:05;100915.41;;;-5.05;73.21
6216;BME280;3141;49.234;9.326;2022-12-18T03:06:54;100911.88;;;-5.01;73.23
6216;BME280;3141;49.234;9.326;2022-12-18T03:07:42;100912.88;;;-5.08;73.42
6216;BME280;3141;49.234;9.326;2022-12-18T03:08:36;100911.88;;;-5.01;73.16
6216;BME280;3141;49.234;9.326;2022-12-18T03:09:34;100910.09;;;-4.99;73.50
6216;BME280;3141;49.234;9.326;2022-12-18T03:10:23;100911.00;;;-5.00;73.71
6216;BME280;3141;49.234;9.326;2022-12-18T03:11:12;100910.09;;;-4.99;73.27
6216;BME280;3141;49.234;9.326;2022-12-18T03:11:56;100897.25;;;-5.00;73.84
6216;BME280;3141;49.234;9.326;2022-12-18T03:13:04;100914.47;;;-5.01;73.52
6216;BME280;3141;49.234;9.326;2022-12-18T03:13:54;100911.03;;;-5.01;73.90
6216;BME280;3141;49.234;9.326;2022-12-18T03:14:40;100906.66;;;-4.98;74.10
6216;BME280;3141;49.234;9.326;2022-12-18T03:15:37;100917.72;;;-4.91;73.48
6216;BME280;3141;49.234;9.326;2022-12-18T03:16:28;100918.50;;;-4.88;73.83
6216;BME280;3141;49.234;9.326;2022-12-18T03:17:13;100915.91;;;-4.88;73.43
6216;BME280;3141;49.234;9.326;2022-12-18T03:18:14;100914.16;;;-4.86;73.96
6216;BME280;3141;49.234;9.326;2022-12-18T03:19:02;100913.25;;;-4.83;73.79
6216;BME280;3141;49.234;9.326;2022-12-18T03:19:46;100920.25;;;-4.90;74.17
6216;BME280;3141;49.234;9.326;2022-12-18T03:20:31;100913.09;;;-4.76;73.29
6216;BME280;3141;49.234;9.326;2022-12-18T03:21:17;100923.31;;;-4.69;73.33
6216;BME280;3141;49.234;9.326;2022-12-18T03:22:03;100923.25;;;-4.66;72.55
6216;BME280;3141;49.234;9.326;2022-12-18T03:22:51;100922.22;;;-4.58;72.56
6216;BME280;3141;49.234;9.326;2022-12-18T03:23:40;100914.44;;;-4.56;72.24
6216;BME280;3141;49.234;9.326;2022-12-18T03:24:28;100923.91;;;-4.57;72.44
6216;BME280;3141;49.234;9.326;2022-12-18T03:25:13;100920.66;;;-4.66;72.57
6216;BME280;3141;49.234;9.326;2022-12-18T03:26:00;100924.31;;;-4.77;72.53
6216;BME280;3141;49.234;9.326;2022-12-18T03:26:46;100923.50;;;-4.79;73.26
6216;BME280;3141;49.234;9.326;2022-12-18T03:27:29;100919.84;;;-4.68;72.83
6216;BME280;3141;49.234;9.326;2022-12-18T03:28:16;100924.03;;;-4.63;72.52
6216;BME280;3141;49.234;9.326;2022-12-18T03:29:05;100917.97;;;-4.62;72.63
6216;BME280;3141;49.234;9.326;2022-12-18T03:30:00;100916.25;;;-4.61;71.99
6216;BME280;3141;49.234;9.326;2022-12-18T03:30:54;100925.59;;;-4.56;72.02
6216;BME280;3141;49.234;9.326;2022-12-18T03:31:40;100921.50;;;-4.64;72.19
6216;BME280;3141;49.234;9.326;2022-12-18T03:32:31;100916.25;;;-4.61;71.74
6216;BME280;3141;49.234;9.326;2022-12-18T03:33:25;100922.25;;;-4.59;71.72
6216;BME280;3141;49.234;9.326;2022-12-18T03:34:14;100918.00;;;-4.63;71.78
6216;BME280;3141;49.234;9.326;2022-12-18T03:35:00;100912.00;;;-4.64;71.96
6216;BME280;3141;49.234;9.326;2022-12-18T03:35:46;100913.78;;;-4.66;71.43
6216;BME280;3141;49.234;9.326;2022-12-18T03:36:28;100901.78;;;-4.68;71.38
6216;BME280;3141;49.234;9.326;2022-12-18T03:37:11;100916.44;;;-4.71;71.23
6216;BME280;3141;49.234;9.326;2022-12-18T03:37:53;100917.25;;;-4.68;71.39
6216;BME280;3141;49.234;9.326;2022-12-18T03:38:35;100904.44;;;-4.72;71.51
6216;BME280;3141;49.234;9.326;2022-12-18T03:39:19;100918.25;;;-4.76;71.89
6216;BME280;3141;49.234;9.326;2022-12-18T03:40:02;100919.16;;;-4.77;71.93
6216;BME280;3141;49.234;9.326;2022-12-18T03:41:03;100917.41;;;-4.75;71.41
6216;BME280;3141;49.234;9.326;2022-12-18T03:43:10;100927.97;;;-4.88;72.00
6216;BME280;3141;49.234;9.326;2022-12-18T03:44:18;100920.31;;;-4.93;72.11
6216;BME280;3141;49.234;9.326;2022-12-18T03:45:12;100933.19;;;-4.91;73.02
6216;BME280;3141;49.234;9.326;2022-12-18T03:46:04;100926.44;;;-4.98;72.21
6216;BME280;3141;49.234;9.326;2022-12-18T03:47:00;100926.44;;;-4.98;72.03
6216;BME280;3141;49.234;9.326;2022-12-18T03:48:21;100935.91;;;-5.00;72.70
6216;BME280;3141;49.234;9.326;2022-12-18T03:49:14;100929.78;;;-4.93;73.08
6216;BME280;3141;49.234;9.326;2022-12-18T03:50:13;100935.72;;;-4.90;72.48
6216;BME280;3141;49.234;9.326;2022-12-18T03:51:00;100934.91;;;-4.90;72.47
6216;BME280;3141;49.234;9.326;2022-12-18T03:51:49;100942.63;;;-4.92;72.50
6216;BME280;3141;49.234;9.326;2022-12-18T03:52:40;100929.09;;;-5.01;72.85
6216;BME280;3141;49.234;9.326;2022-12-18T03:54:28;100927.22;;;-4.95;73.49
6216;BME280;3141;49.234;9.326;2022-12-18T03:55:11;100926.31;;;-4.91;72.86
6216;BME280;3141;49.234;9.326;2022-12-18T03:55:55;100926.22;;;-4.88;72.79
6216;BME280;3141;49.234;9.326;2022-12-18T03:56:45;100924.41;;;-4.83;72.89
6216;BME280;3141;49.234;9.326;2022-12-18T03:57:31;100931.22;;;-4.79;72.23
6216;BME280;3141;49.234;9.326;2022-12-18T03:58:17;100936.44;;;-4.82;72.26
6216;BME280;3141;49.234;9.326;2022-12-18T03:59:03;100931.16;;;-4.76;72.06
6216;BME280;3141;49.234;9.326;2022-12-18T03:59:50;100935.38;;;-4.72;71.48
6216;BME280;3141;49.234;9.326;2022-12-18T04:00:33;100936.22;;;-4.69;72.03
6216;BME280;3141;49.234;9.326;2022-12-18T04:01:17;100937.13;;;-4.74;71.69
6216;BME280;3141;49.234;9.326;2022-12-18T04:02:03;100937.13;;;-4.74;71.98
6216;BME280;3141;49.234;9.326;2022-12-18T04:02:51;100931.94;;;-4.72;71.88
6216;BME280;3141;49.234;9.326;2022-12-18T04:03:35;100934.47;;;-4.69;71.36
6216;BME280;3141;49.234;9.326;2022-12-18T04:04:18;100941.38;;;-4.71;71.35
6216;BME280;3141;49.234;9.326;2022-12-18T04:05:04;100938.03;;;-4.75;71.51
6216;BME280;3141;49.234;9.326;2022-12-18T04:05:50;100935.38;;;-4.72;71.54
6216;BME280;3141;49.234;9.326;2022-12-18T04:06:33;100927.72;;;-4.76;71.64
6216;BME280;3141;49.234;9.326;2022-12-18T04:07:17;100932.06;;;-4.77;72.05
6216;BME280;3141;49.234;9.326;2022-12-18T04:08:01;100928.72;;;-4.82;71.77
6216;BME280;3141;49.234;9.326;2022-12-18T04:08:44;100928.00;;;-4.90;72.25
6216;BME280;3141;49.234;9.326;2022-12-18T04:09:28;100921.00;;;-4.85;72.71
6216;BME280;3141;49.234;9.326;2022-12-18T04:10:12;100924.59;;;-4.92;72.60
6216;BME280;3141;49.234;9.326;2022-12-18T04:10:56;100925.53;;;-4.96;73.07
6216;BME280;3141;49.234;9.326;2022-12-18T04:11:40;100920.19;;;-4.87;73.02
6216;BME280;3141;49.234;9.326;2022-12-18T04:12:24;100919.28;;;-4.84;72.67
6216;BME280;3141;49.234;9.326;2022-12-18T04:13:08;100923.56;;;-4.83;72.31
6216;BME280;3141;49.234;9.326;2022-12-18T04:13:55;100927.13;;;-4.89;72.80
6216;BME280;3141;49.234;9.326;2022-12-18T04:14:38;100923.72;;;-4.91;73.18
6216;BME280;3141;49.234;9.326;2022-12-18T04:15:20;100917.59;;;-4.85;72.46
6216;BME280;3141;49.234;9.326;2022-12-18T04:16:04;100925.31;;;-4.84;72.51
6216;BME280;3141;49.234;9.326;2022-12-18T04:16:46;100930.41;;;-4.81;72.69
6216;BME280;3141;49.234;9.326;2022-12-18T04:17:28;100922.75;;;-4.85;72.49
6216;BME280;3141;49.234;9.326;2022-12-18T04:18:11;100927.88;;;-4.84;73.12
6216;BME280;3141;49.234;9.326;2022-12-18T04:18:53;100934.03;;;-4.91;73.09
6216;BME280;3141;49.234;9.326;2022-12-18T04:19:36;100933.75;;;-4.76;72.42
6216;BME280;3141;49.234;9.326;2022-12-18T04:20:18;100930.28;;;-4.75;72.52
6216;BME280;3141;49.234;9.326;2022-12-18T04:21:01;100933.63;;;-4.69;72.22
6216;BME280;3141;49.234;9.326;2022-12-18T04:21:43;100938.00;;;-4.73;72.42
6216;BME280;3141;49.234;9.326;2022-12-18T04:22:26;100937.13;;;-4.74;72.72
6216;BME280;3141;49.234;9.326;2022-12-18T04:23:08;100936.28;;;-4.74;72.63
6216;BME280;3141;49.234;9.326;2022-12-18T04:23:51;100934.47;;;-4.69;72.61
6216;BME280;3141;49.234;9.326;2022-12-18T04:24:33;100941.34;;;-4.68;72.67
6216;BME280;3141;49.234;9.326;2022-12-18T04:25:16;100937.78;;;-4.64;72.76